sensor_id;sensor_type;location;lat;lon;timestamp;pressure;altitude;pressure_sealevel;temperature;humidity
33506;BME280;19843;51.040;13.782;2023-09-12T00:00:51;99966.81;;;18.64;100.00
33506;BME280;19843;51.040;13.782;2023-09-12T00:03:21;99980.56;;;18.59;100.00
33506;BME280;19843;51.040;13.782;2023-09-12T00:05:52;99971.69;;;18.57;100.00
33506;BME280;19843;51.040;13.782;2023-09-12T00:08:20;99974.50;;;18.50;100.00
33506;BME280;19843;51.040;13.782;2023-09-12T00:10:58;99972.91;;;18.52;100.00
33506;BME280;19843;51.040;13.782;2023-09-12T00:13:25;99976.16;;;18.33;100.00
33506;BME280;19843;51.040;13.782;2023-09-12T00:15:53;99974.91;;;18.41;100.00
33506;BME280;19843;51.040;13.782;2023-09-12T00:18:22;99980.56;;;18.41;100.00
33506;BME280;19843;51.040;13.782;2023-09-12T00:20:50;99975.75;;;18.38;100.00
33506;BME280;19843;51.040;13.782;2023-09-12T00:23:18;99970.09;;;18.38;100.00
33506;BME280;19843;51.040;13.782;2023-09-12T00:25:46;99980.56;;;18.41;100.00
33506;BME280;19843;51.040;13.782;2023-09-12T00:28:13;99988.66;;;18.42;100.00
33506;BME280;19843;51.040;13.782;2023-09-12T00:30:41;99977.72;;;18.41;100.00
33506;BME280;19843;51.040;13.782;2023-09-12T00:33:08;99977.34;;;18.42;100.00
33506;BME280;19843;51.040;13.782;2023-09-12T00:35:37;99983.38;;;18.45;100.00
33506;BME280;19843;51.040;13.782;2023-09-12T00:38:05;99971.69;;;18.39;100.00
33506;BME280;19843;51.040;13.782;2023-09-12T00:40:33;99976.53;;;18.46;100.00
33506;BME280;19843;51.040;13.782;2023-09-12T00:43:01;99967.25;;;18.45;100.00
33506;BME280;19843;51.040;13.782;2023-09-12T00:45:28;99967.66;;;18.47;100.00
33506;BME280;19843;51.040;13.782;2023-09-12T00:47:58;99970.06;;;18.45;100.00
33506;BME280;19843;51.040;13.782;2023-09-12T00:50:26;99964.41;;;18.41;100.00
33506;BME280;19843;51.040;13.782;2023-09-12T00:52:55;99975.31;;;18.43;100.00
33506;BME280;19843;51.040;13.782;2023-09-12T00:55:23;99969.28;;;18.30;100.00
33506;BME280;19843;51.040;13.782;2023-09-12T00:57:51;99979.75;;;18.15;100.00
33506;BME280;19843;51.040;13.782;2023-09-12T01:00:20;99972.09;;;18.23;100.00
33506;BME280;19843;51.040;13.782;2023-09-12T01:02:48;99977.34;;;18.10;100.00
33506;BME280;19843;51.040;13.782;2023-09-12T01:05:17;99974.94;;;18.09;100.00
33506;BME280;19843;51.040;13.782;2023-09-12T02:17:45;99990.69;;;17.08;100.00
33506;BME280;19843;51.040;13.782;2023-09-12T02:20:13;99993.13;;;17.10;100.00
33506;BME280;19843;51.040;13.782;2023-09-12T02:22:40;99992.69;;;17.08;100.00
33506;BME280;19843;51.040;13.782;2023-09-12T02:25:08;99991.50;;;17.09;100.00
33506;BME280;19843;51.040;13.782;2023-09-12T02:27:36;99991.91;;;17.07;100.00
33506;BME280;19843;51.040;13.782;2023-09-12T02:30:05;99994.22;;;16.91;100.00
33506;BME280;19843;51.040;13.782;2023-09-12T02:32:33;99986.16;;;16.89;100.00
33506;BME280;19843;51.040;13.782;2023-09-12T02:35:02;99991.06;;;17.00;100.00
33506;BME280;19843;51.040;13.782;2023-09-12T02:37:30;99991.31;;;16.80;100.00
33506;BME280;19843;51.040;13.782;2023-09-12T02:39:57;99993.44;;;16.98;100.00
33506;BME280;19843;51.040;13.782;2023-09-12T02:42:26;99999.53;;;17.00;100.00
33506;BME280;19843;51.040;13.782;2023-09-12T02:44:53;100003.56;;;17.02;100.00
33506;BME280;19843;51.040;13.782;2023-09-12T02:47:21;99999.06;;;16.94;100.00
33506;BME280;19843;51.040;13.782;2023-09-12T02:49:48;99996.22;;;16.87;100.00
33506;BME280;19843;51.040;13.782;2023-09-12T02:52:17;99995.88;;;16.99;100.00
33506;BME280;19843;51.040;13.782;2023-09-12T02:54:45;99999.13;;;17.01;100.00
33506;BME280;19843;51.040;13.782;2023-09-12T02:57:12;100000.31;;;17.00;100.00
33506;BME280;19843;51.040;13.782;2023-09-12T02:59:40;99993.88;;;17.00;100.00
33506;BME280;19843;51.040;13.782;2023-09-12T03:02:07;99999.16;;;17.05;100.00
33506;BME280;19843;51.040;13.782;2023-09-12T03:04:35;99995.50;;;17.01;100.00
33506;BME280;19843;51.040;13.782;2023-09-12T03:07:03;99993.06;;;17.03;100.00
33506;BME280;19843;51.040;13.782;2023-09-12T03:09:32;99987.78;;;16.91;100.00
33506;BME280;19843;51.040;13.782;2023-09-12T03:12:00;99991.03;;;16.96;100.00
33506;BME280;19843;51.040;13.782;2023-09-12T03:14:28;99986.59;;;16.92;100.00
33506;BME280;19843;51.040;13.782;2023-09-12T03:16:56;99997.81;;;16.88;100.00
33506;BME280;19843;51.040;13.782;2023-09-12T03:19:23;99985.72;;;16.84;100.00
33506;BME280;19843;51.040;13.782;2023-09-12T03:21:51;99987.31;;;16.81;100.00
33506;BME280;19843;51.040;13.782;2023-09-12T03:24:19;99987.19;;;16.67;100.00
33506;BME280;19843;51.040;13.782;2023-09-12T03:26:49;99986.06;;;16.72;100.00
33506;BME280;19843;51.040;13.782;2023-09-12T03:29:17;99975.47;;;16.58;100.00
33506;BME280;19843;51.040;13.782;2023-09-12T03:31:44;99974.25;;;16.59;100.00
33506;BME280;19843;51.040;13.782;2023-09-12T03:34:12;99987.56;;;16.65;100.00
33506;BME280;19843;51.040;13.782;2023-09-12T03:36:39;99980.34;;;16.68;100.00
33506;BME280;19843;51.040;13.782;2023-09-12T03:39:07;99990.00;;;16.63;100.00
33506;BME280;19843;51.040;13.782;2023-09-12T03:41:35;99987.19;;;16.67;100.00
33506;BME280;19843;51.040;13.782;2023-09-12T03:44:04;99981.13;;;16.65;100.00
33506;BME280;19843;51.040;13.782;2023-09-12T03:46:32;99982.28;;;16.53;100.00
33506;BME280;19843;51.040;13.782;2023-09-12T03:48:59;99979.13;;;16.65;100.00
33506;BME280;19843;51.040;13.782;2023-09-12T03:51:27;99980.25;;;16.54;100.00
33506;BME280;19843;51.040;13.782;2023-09-12T03:53:55;99980.81;;;16.74;100.00
33506;BME280;19843;51.040;13.782;2023-09-12T03:56:23;99978.81;;;16.74;100.00
33506;BME280;19843;51.040;13.782;2023-09-12T03:58:50;99980.03;;;16.73;100.00
33506;BME280;19843;51.040;13.782;2023-09-12T04:01:21;99975.13;;;16.70;100.00
33506;BME280;19843;51.040;13.782;2023-09-12T04:03:49;99983.81;;;16.44;100.00
33506;BME280;19843;51.040;13.782;2023-09-12T04:06:16;99995.06;;;16.44;100.00
33506;BME280;19843;51.040;13.782;2023-09-12T04:08:44;99986.25;;;16.49;100.00
33506;BME280;19843;51.040;13.782;2023-09-12T04:11:11;99992.69;;;16.49;100.00
33506;BME280;19843;51.040;13.782;2023-09-12T04:13:39;99989.84;;;16.46;100.00
33506;BME280;19843;51.040;13.782;2023-09-12T04:16:06;99988.63;;;16.47;100.00
33506;BME280;19843;51.040;13.782;2023-09-12T04:18:36;99991.44;;;16.43;100.00
33506;BME280;19843;51.040;13.782;2023-09-12T04:21:04;99987.91;;;16.53;100.00
33506;BME280;19843;51.040;13.782;2023-09-12T04:23:31;99984.72;;;16.58;100.00
33506;BME280;19843;51.040;13.782;2023-09-12T04:25:59;99989.59;;;16.65;100.00
33506;BME280;19843;51.040;13.782;2023-09-12T04:28:29;99988.81;;;16.68;100.00
33506;BME280;19843;51.040;13.782;2023-09-12T04:31:03;99989.63;;;16.69;100.00
33506;BME280;19843;51.040;13.782;2023-09-12T04:33:31;99992.84;;;16.67;100.00
33506;BME280;19843;51.040;13.782;2023-09-12T04:36:00;99990.28;;;16.51;100.00
33506;BME280;19843;51.040;13.782;2023-09-12T04:38:29;99985.09;;;16.53;100.00
33506;BME280;19843;51.040;13.782;2023-09-12T04:40:56;99989.59;;;16.65;100.00
33506;BME280;19843;51.040;13.782;2023-09-12T04:43:29;99983.63;;;16.74;100.00
33506;BME280;19843;51.040;13.782;2023-09-12T04:45:56;99985.28;;;16.78;100.00
33506;BME280;19843;51.040;13.782;2023-09-12T04:48:24;99984.78;;;16.69;100.00
33506;BME280;19843;51.040;13.782;2023-09-12T04:50:52;99978.81;;;16.74;100.00
33506;BME280;19843;51.040;13.782;2023-09-12T04:53:21;99982.03;;;16.73;100.00
33506;BME280;19843;51.040;13.782;2023-09-12T04:55:48;99972.72;;;16.69;100.00
33506;BME280;19843;51.040;13.782;2023-09-12T04:58:16;99987.31;;;16.85;100.00
33506;BME280;19843;51.040;13.782;2023-09-12T05:00:43;99980.88;;;16.84;100.00
33506;BME280;19843;51.040;13.782;2023-09-12T05:03:11;99980.09;;;16.87;100.00
33506;BME280;19843;51.040;13.782;2023-09-12T05:05:39;99980.91;;;16.88;100.00
33506;BME280;19843;51.040;13.782;2023-09-12T05:08:06;99977.22;;;16.80;100.00
33506;BME280;19843;51.040;13.782;2023-09-12T05:10:35;99984.16;;;16.94;100.00
33506;BME280;19843;51.040;13.782;2023-09-12T05:13:03;99985.81;;;16.98;100.00
33506;BME280;19843;51.040;13.782;2023-09-12T05:15:31;99976.06;;;16.85;100.00
33506;BME280;19843;51.040;13.782;2023-09-12T05:17:58;99988.66;;;17.02;100.00
33506;BME280;19843;51.040;13.782;2023-09-12T05:20:26;99983.81;;;17.02;100.00
33506;BME280;19843;51.040;13.782;2023-09-12T05:22:53;99990.34;;;17.17;100.00
33506;BME280;19843;51.040;13.782;2023-09-12T05:25:21;99992.69;;;17.04;100.00
33506;BME280;19843;51.040;13.782;2023-09-12T05:27:50;99989.75;;;16.83;100.00
33506;BME280;19843;51.040;13.782;2023-09-12T05:30:18;99989.81;;;16.97;100.00
33506;BME280;19843;51.040;13.782;2023-09-12T05:32:46;99985.09;;;17.15;100.00
33506;BME280;19843;51.040;13.782;2023-09-12T05:35:13;99990.75;;;17.23;100.00
33506;BME280;19843;51.040;13.782;2023-09-12T05:37:48;99995.53;;;17.04;100.00
33506;BME280;19843;51.040;13.782;2023-09-12T05:40:15;100000.06;;;17.30;100.00
33506;BME280;19843;51.040;13.782;2023-09-12T05:42:43;100001.31;;;17.40;100.00
33506;BME280;19843;51.040;13.782;2023-09-12T05:45:12;99997.66;;;17.29;100.00
33506;BME280;19843;51.040;13.782;2023-09-12T05:47:40;99995.69;;;17.40;100.00
33506;BME280;19843;51.040;13.782;2023-09-12T05:50:08;99990.50;;;17.53;100.00
33506;BME280;19843;51.040;13.782;2023-09-12T05:52:36;99997.81;;;17.72;100.00
33506;BME280;19843;51.040;13.782;2023-09-12T05:55:04;100004.31;;;17.83;100.00
33506;BME280;19843;51.040;13.782;2023-09-12T05:57:31;100009.13;;;17.79;100.00
33506;BME280;19843;51.040;13.782;2023-09-12T06:00:00;100015.63;;;17.90;100.00
33506;BME280;19843;51.040;13.782;2023-09-12T06:02:29;100008.81;;;18.09;100.00
33506;BME280;19843;51.040;13.782;2023-09-12T06:04:56;100012.84;;;18.22;100.00
33506;BME280;19843;51.040;13.782;2023-09-12T06:07:24;100012.88;;;18.43;99.07
33506;BME280;19843;51.040;13.782;2023-09-12T06:09:52;100027.41;;;18.42;100.00
33506;BME280;19843;51.040;13.782;2023-09-12T06:12:19;100021.34;;;18.19;100.00
33506;BME280;19843;51.040;13.782;2023-09-12T06:14:47;100016.50;;;18.48;100.00
33506;BME280;19843;51.040;13.782;2023-09-12T06:17:15;100022.53;;;18.60;99.09
33506;BME280;19843;51.040;13.782;2023-09-12T06:19:44;100019.72;;;18.89;97.86
33506;BME280;19843;51.040;13.782;2023-09-12T06:22:12;100016.09;;;18.92;96.54
33506;BME280;19843;51.040;13.782;2023-09-12T06:24:39;100018.47;;;19.11;95.31
33506;BME280;19843;51.040;13.782;2023-09-12T06:27:07;100006.28;;;19.29;93.63
33506;BME280;19843;51.040;13.782;2023-09-12T06:29:34;100015.97;;;19.31;94.18
33506;BME280;19843;51.040;13.782;2023-09-12T06:32:02;100014.72;;;19.47;93.56
33506;BME280;19843;51.040;13.782;2023-09-12T06:34:30;100008.59;;;19.55;92.82
33506;BME280;19843;51.040;13.782;2023-09-12T06:36:59;100019.53;;;19.60;92.88
33506;BME280;19843;51.040;13.782;2023-09-12T06:39:27;100022.34;;;19.67;92.18
33506;BME280;19843;51.040;13.782;2023-09-12T06:41:55;100023.16;;;19.64;90.31
33506;BME280;19843;51.040;13.782;2023-09-12T06:44:24;100026.75;;;19.76;90.06
33506;BME280;19843;51.040;13.782;2023-09-12T06:46:52;100028.78;;;19.75;90.39
33506;BME280;19843;51.040;13.782;2023-09-12T06:49:19;100022.56;;;19.98;88.83
33506;BME280;19843;51.040;13.782;2023-09-12T06:51:47;100022.50;;;20.09;87.86
33506;BME280;19843;51.040;13.782;2023-09-12T06:54:18;100021.22;;;20.17;87.82
33506;BME280;19843;51.040;13.782;2023-09-12T06:56:45;100018.72;;;20.30;88.58
33506;BME280;19843;51.040;13.782;2023-09-12T06:59:13;100022.97;;;20.00;89.82
33506;BME280;19843;51.040;13.782;2023-09-12T07:01:40;100019.72;;;20.02;89.06
33506;BME280;19843;51.040;13.782;2023-09-12T07:04:08;100018.69;;;20.37;87.71
33506;BME280;19843;51.040;13.782;2023-09-12T07:06:35;100024.97;;;20.62;87.10
33506;BME280;19843;51.040;13.782;2023-09-12T07:09:03;100025.16;;;20.86;85.82
33506;BME280;19843;51.040;13.782;2023-09-12T07:11:33;100025.06;;;20.93;85.23
33506;BME280;19843;51.040;13.782;2023-09-12T07:14:00;100026.00;;;20.79;82.93
33506;BME280;19843;51.040;13.782;2023-09-12T07:16:30;100021.41;;;20.96;81.50
33506;BME280;19843;51.040;13.782;2023-09-12T07:18:58;100027.88;;;21.38;80.09
33506;BME280;19843;51.040;13.782;2023-09-12T07:21:26;100032.16;;;21.53;78.75
33506;BME280;19843;51.040;13.782;2023-09-12T07:23:54;100025.72;;;21.80;77.32
33506;BME280;19843;51.040;13.782;2023-09-12T07:26:22;100028.09;;;21.85;77.02
33506;BME280;19843;51.040;13.782;2023-09-12T07:28:55;100027.31;;;21.50;77.21
33506;BME280;19843;51.040;13.782;2023-09-12T07:31:22;100016.59;;;21.65;78.06
33506;BME280;19843;51.040;13.782;2023-09-12T07:33:50;100023.78;;;21.73;77.99
33506;BME280;19843;51.040;13.782;2023-09-12T07:36:17;100022.81;;;21.83;76.20
33506;BME280;19843;51.040;13.782;2023-09-12T07:38:45;100020.41;;;22.12;76.45
33506;BME280;19843;51.040;13.782;2023-09-12T07:41:13;100022.78;;;22.68;74.38
33506;BME280;19843;51.040;13.782;2023-09-12T07:43:41;100023.41;;;22.79;72.92
33506;BME280;19843;51.040;13.782;2023-09-12T07:46:10;100015.97;;;23.09;71.60
33506;BME280;19843;51.040;13.782;2023-09-12T07:48:38;100017.81;;;23.39;72.02
33506;BME280;19843;51.040;13.782;2023-09-12T07:51:13;100017.00;;;23.18;71.57
33506;BME280;19843;51.040;13.782;2023-09-12T07:53:41;100025.44;;;23.45;70.71
33506;BME280;19843;51.040;13.782;2023-09-12T07:56:09;100021.19;;;23.54;70.91
33506;BME280;19843;51.040;13.782;2023-09-12T07:58:37;100024.97;;;23.87;69.66
33506;BME280;19843;51.040;13.782;2023-09-12T08:01:05;100033.16;;;23.45;69.40
33506;BME280;19843;51.040;13.782;2023-09-12T08:03:35;100021.06;;;23.97;68.70
33506;BME280;19843;51.040;13.782;2023-09-12T08:06:03;100010.09;;;24.32;66.40
33506;BME280;19843;51.040;13.782;2023-09-12T08:08:31;100009.88;;;24.42;68.87
33506;BME280;19843;51.040;13.782;2023-09-12T08:10:59;100017.53;;;24.62;65.95
33506;BME280;19843;51.040;13.782;2023-09-12T08:13:28;100011.66;;;24.52;65.17
33506;BME280;19843;51.040;13.782;2023-09-12T08:15:56;100019.31;;;24.88;66.08
33506;BME280;19843;51.040;13.782;2023-09-12T08:18:26;100017.66;;;25.20;64.23
33506;BME280;19843;51.040;13.782;2023-09-12T08:20:55;100021.44;;;25.29;64.50
33506;BME280;19843;51.040;13.782;2023-09-12T08:23:23;100012.94;;;24.97;64.58
33506;BME280;19843;51.040;13.782;2023-09-12T08:25:50;100016.00;;;24.90;62.58
33506;BME280;19843;51.040;13.782;2023-09-12T08:28:18;100024.75;;;25.28;61.96
33506;BME280;19843;51.040;13.782;2023-09-12T08:30:45;100017.47;;;25.11;61.87
33506;BME280;19843;51.040;13.782;2023-09-12T08:33:13;100015.94;;;25.51;60.17
33506;BME280;19843;51.040;13.782;2023-09-12T08:35:41;100017.22;;;25.63;60.57
33506;BME280;19843;51.040;13.782;2023-09-12T08:38:10;100019.16;;;26.08;57.83
33506;BME280;19843;51.040;13.782;2023-09-12T08:40:38;100019.94;;;26.34;56.76
33506;BME280;19843;51.040;13.782;2023-09-12T08:43:07;100015.16;;;26.31;56.76
33506;BME280;19843;51.040;13.782;2023-09-12T08:45:35;100023.63;;;25.67;54.62
33506;BME280;19843;51.040;13.782;2023-09-12T08:48:03;100021.78;;;25.61;54.45
33506;BME280;19843;51.040;13.782;2023-09-12T08:50:32;100019.72;;;26.16;53.85
33506;BME280;19843;51.040;13.782;2023-09-12T08:53:00;100020.41;;;26.71;52.41
33506;BME280;19843;51.040;13.782;2023-09-12T08:55:35;100019.50;;;26.61;52.92
33506;BME280;19843;51.040;13.782;2023-09-12T08:58:04;100017.63;;;26.80;51.68
33506;BME280;19843;51.040;13.782;2023-09-12T09:00:33;100019.13;;;27.19;51.09
33506;BME280;19843;51.040;13.782;2023-09-12T09:03:03;100012.56;;;27.31;50.84
33506;BME280;19843;51.040;13.782;2023-09-12T09:05:33;100020.16;;;27.25;50.65
33506;BME280;19843;51.040;13.782;2023-09-12T09:08:03;100014.09;;;27.45;50.50
33506;BME280;19843;51.040;13.782;2023-09-12T09:10:31;100009.66;;;27.44;52.36
33506;BME280;19843;51.040;13.782;2023-09-12T09:13:03;100003.41;;;27.90;49.22
33506;BME280;19843;51.040;13.782;2023-09-12T09:15:33;100001.66;;;28.23;49.38
33506;BME280;19843;51.040;13.782;2023-09-12T09:18:04;100000.69;;;27.64;47.76
33506;BME280;19843;51.040;13.782;2023-09-12T09:20:34;99994.03;;;27.45;47.34
33506;BME280;19843;51.040;13.782;2023-09-12T09:23:03;99991.34;;;27.95;46.35
33506;BME280;19843;51.040;13.782;2023-09-12T09:25:32;99989.25;;;27.64;48.58
33506;BME280;19843;51.040;13.782;2023-09-12T09:28:04;99979.66;;;28.20;47.67
33506;BME280;19843;51.040;13.782;2023-09-12T09:30:41;99987.44;;;28.51;48.37
33506;BME280;19843;51.040;13.782;2023-09-12T09:33:10;99994.91;;;26.98;50.83
33506;BME280;19843;51.040;13.782;2023-09-12T09:35:38;99980.59;;;28.17;48.98
33506;BME280;19843;51.040;13.782;2023-09-12T09:38:08;99984.53;;;28.42;47.22
33506;BME280;19843;51.040;13.782;2023-09-12T09:40:36;99986.09;;;28.92;45.09
33506;BME280;19843;51.040;13.782;2023-09-12T09:43:05;99977.91;;;27.83;45.83
33506;BME280;19843;51.040;13.782;2023-09-12T09:45:42;99981.41;;;28.76;45.50
33506;BME280;19843;51.040;13.782;2023-09-12T09:48:17;99981.31;;;29.07;43.67
33506;BME280;19843;51.040;13.782;2023-09-12T09:50:45;99971.13;;;29.25;43.20
33506;BME280;19843;51.040;13.782;2023-09-12T09:53:13;99973.84;;;29.01;42.75
33506;BME280;19843;51.040;13.782;2023-09-12T09:55:40;99967.06;;;29.77;41.85
33506;BME280;19843;51.040;13.782;2023-09-12T09:58:14;99968.38;;;29.58;40.16
33506;BME280;19843;51.040;13.782;2023-09-12T10:00:43;99970.09;;;30.25;39.41
33506;BME280;19843;51.040;13.782;2023-09-12T10:03:12;99970.91;;;30.50;39.79
33506;BME280;19843;51.040;13.782;2023-09-12T10:05:43;99977.75;;;30.52;38.88
33506;BME280;19843;51.040;13.782;2023-09-12T10:08:12;99974.41;;;30.54;38.84
33506;BME280;19843;51.040;13.782;2023-09-12T10:10:43;99968.19;;;29.52;41.47
33506;BME280;19843;51.040;13.782;2023-09-12T10:13:14;99977.00;;;29.58;40.72
33506;BME280;19843;51.040;13.782;2023-09-12T10:15:44;99974.31;;;30.06;39.99
33506;BME280;19843;51.040;13.782;2023-09-12T10:18:18;99971.19;;;30.28;41.20
33506;BME280;19843;51.040;13.782;2023-09-12T10:20:53;99970.94;;;30.74;40.80
33506;BME280;19843;51.040;13.782;2023-09-12T10:23:27;99979.78;;;31.09;39.13
33506;BME280;19843;51.040;13.782;2023-09-12T10:25:58;99981.03;;;30.69;39.87
33506;BME280;19843;51.040;13.782;2023-09-12T10:28:27;99969.97;;;30.10;40.04
33506;BME280;19843;51.040;13.782;2023-09-12T10:30:57;99972.84;;;30.20;38.74
33506;BME280;19843;51.040;13.782;2023-09-12T10:33:25;99973.91;;;29.80;39.67
33506;BME280;19843;51.040;13.782;2023-09-12T10:35:58;99978.28;;;29.57;39.81
33506;BME280;19843;51.040;13.782;2023-09-12T10:38:30;99978.22;;;30.84;38.55
33506;BME280;19843;51.040;13.782;2023-09-12T10:41:01;99970.13;;;30.49;38.98
33506;BME280;19843;51.040;13.782;2023-09-12T10:43:31;99974.44;;;30.21;37.30
33506;BME280;19843;51.040;13.782;2023-09-12T10:46:01;99971.69;;;30.50;38.99
33506;BME280;19843;51.040;13.782;2023-09-12T10:48:30;99974.72;;;29.53;37.92
33506;BME280;19843;51.040;13.782;2023-09-12T10:51:00;99974.09;;;29.67;38.28
33506;BME280;19843;51.040;13.782;2023-09-12T10:53:30;99964.75;;;29.91;38.02
33506;BME280;19843;51.040;13.782;2023-09-12T10:56:00;99960.28;;;30.32;37.59
33506;BME280;19843;51.040;13.782;2023-09-12T10:59:13;99971.13;;;30.37;38.16
33506;BME280;19843;51.040;13.782;2023-09-12T11:01:42;99968.72;;;30.45;38.57
33506;BME280;19843;51.040;13.782;2023-09-12T11:04:31;99966.25;;;30.19;38.21
33506;BME280;19843;51.040;13.782;2023-09-12T11:07:01;99975.41;;;30.99;38.84
33506;BME280;19843;51.040;13.782;2023-09-12T11:09:28;99963.28;;;30.38;40.33
33506;BME280;19843;51.040;13.782;2023-09-12T11:11:58;99960.19;;;29.66;40.95
33506;BME280;19843;51.040;13.782;2023-09-12T11:14:27;99965.56;;;29.91;40.71
33506;BME280;19843;51.040;13.782;2023-09-12T11:17:21;99958.88;;;30.27;38.99
33506;BME280;19843;51.040;13.782;2023-09-12T11:19:50;99952.09;;;30.64;38.07
33506;BME280;19843;51.040;13.782;2023-09-12T11:22:27;99959.63;;;31.09;39.17
33506;BME280;19843;51.040;13.782;2023-09-12T11:24:55;99949.28;;;29.88;40.55
33506;BME280;19843;51.040;13.782;2023-09-12T11:27:24;99947.66;;;30.87;40.04
33506;BME280;19843;51.040;13.782;2023-09-12T11:30:03;99946.66;;;30.90;38.12
33506;BME280;19843;51.040;13.782;2023-09-12T11:32:32;99934.16;;;30.45;39.89
33506;BME280;19843;51.040;13.782;2023-09-12T11:35:05;99941.28;;;30.82;40.38
33506;BME280;19843;51.040;13.782;2023-09-12T11:37:34;99936.69;;;30.09;40.76
33506;BME280;19843;51.040;13.782;2023-09-12T11:40:15;99933.50;;;30.17;39.74
33506;BME280;19843;51.040;13.782;2023-09-12T11:42:44;99935.13;;;30.66;38.86
33506;BME280;19843;51.040;13.782;2023-09-12T11:45:14;99930.94;;;30.19;39.36
33506;BME280;19843;51.040;13.782;2023-09-12T11:47:43;99930.38;;;30.87;39.65
33506;BME280;19843;51.040;13.782;2023-09-12T11:50:25;99918.91;;;30.77;39.75
33506;BME280;19843;51.040;13.782;2023-09-12T11:52:59;99922.00;;;30.41;41.26
33506;BME280;19843;51.040;13.782;2023-09-12T11:55:26;99924.09;;;30.88;40.00
33506;BME280;19843;51.040;13.782;2023-09-12T11:57:57;99920.97;;;31.16;39.42
33506;BME280;19843;51.040;13.782;2023-09-12T12:00:26;99914.84;;;30.03;39.53
33506;BME280;19843;51.040;13.782;2023-09-12T12:02:54;99914.19;;;31.04;39.28
33506;BME280;19843;51.040;13.782;2023-09-12T12:05:22;99917.56;;;31.02;38.57
33506;BME280;19843;51.040;13.782;2023-09-12T12:07:50;99916.16;;;31.36;38.42
33506;BME280;19843;51.040;13.782;2023-09-12T12:10:20;99908.28;;;31.37;37.27
33506;BME280;19843;51.040;13.782;2023-09-12T12:12:52;99902.97;;;31.06;38.63
33506;BME280;19843;51.040;13.782;2023-09-12T12:15:20;99909.25;;;30.56;39.14
33506;BME280;19843;51.040;13.782;2023-09-12T12:17:54;99900.00;;;31.00;39.58
33506;BME280;19843;51.040;13.782;2023-09-12T12:20:22;99899.94;;;31.24;38.09
33506;BME280;19843;51.040;13.782;2023-09-12T12:22:50;99899.31;;;31.20;36.50
33506;BME280;19843;51.040;13.782;2023-09-12T12:25:19;99900.56;;;30.42;38.04
33506;BME280;19843;51.040;13.782;2023-09-12T12:27:49;99898.72;;;31.16;38.53
33506;BME280;19843;51.040;13.782;2023-09-12T12:30:19;99900.88;;;31.06;38.29
33506;BME280;19843;51.040;13.782;2023-09-12T12:32:47;99899.47;;;30.87;38.69
33506;BME280;19843;51.040;13.782;2023-09-12T12:35:18;99893.19;;;30.89;38.58
33506;BME280;19843;51.040;13.782;2023-09-12T12:38:11;99891.97;;;30.80;38.88
33506;BME280;19843;51.040;13.782;2023-09-12T12:40:42;99890.03;;;30.87;37.33
33506;BME280;19843;51.040;13.782;2023-09-12T12:43:16;99886.13;;;31.28;37.71
33506;BME280;19843;51.040;13.782;2023-09-12T12:45:55;99885.03;;;30.72;37.90
33506;BME280;19843;51.040;13.782;2023-09-12T12:48:30;99871.03;;;30.80;36.43
33506;BME280;19843;51.040;13.782;2023-09-12T12:51:12;99887.88;;;30.96;38.59
33506;BME280;19843;51.040;13.782;2023-09-12T12:53:44;99875.56;;;31.10;38.18
33506;BME280;19843;51.040;13.782;2023-09-12T12:56:20;99868.78;;;31.14;37.17
33506;BME280;19843;51.040;13.782;2023-09-12T12:58:49;99873.94;;;30.95;38.55
33506;BME280;19843;51.040;13.782;2023-09-12T13:01:17;99870.44;;;30.91;36.09
33506;BME280;19843;51.040;13.782;2023-09-12T13:03:45;99872.06;;;30.92;37.00
33506;BME280;19843;51.040;13.782;2023-09-12T13:06:16;99869.00;;;30.47;36.31
33506;BME280;19843;51.040;13.782;2023-09-12T13:08:45;99863.19;;;30.80;36.08
33506;BME280;19843;51.040;13.782;2023-09-12T13:11:14;99872.16;;;30.97;35.75
33506;BME280;19843;51.040;13.782;2023-09-12T13:13:44;99864.50;;;30.94;36.98
33506;BME280;19843;51.040;13.782;2023-09-12T13:16:13;99865.19;;;30.65;37.74
33506;BME280;19843;51.040;13.782;2023-09-12T13:18:41;99875.09;;;30.73;36.86
33506;BME280;19843;51.040;13.782;2023-09-12T13:21:09;99862.47;;;30.71;36.68
33506;BME280;19843;51.040;13.782;2023-09-12T13:23:38;99856.53;;;30.50;38.00
33506;BME280;19843;51.040;13.782;2023-09-12T13:26:08;99860.03;;;30.30;36.97
33506;BME280;19843;51.040;13.782;2023-09-12T13:28:36;99862.91;;;30.54;35.87
33506;BME280;19843;51.040;13.782;2023-09-12T13:31:04;99867.56;;;30.28;37.00
33506;BME280;19843;51.040;13.782;2023-09-12T13:33:32;99863.44;;;30.68;36.18
33506;BME280;19843;51.040;13.782;2023-09-12T13:35:59;99861.66;;;30.46;35.94
33506;BME280;19843;51.040;13.782;2023-09-12T13:38:27;99854.47;;;30.66;35.49
33506;BME280;19843;51.040;13.782;2023-09-12T13:40:56;99845.41;;;30.82;35.70
33506;BME280;19843;51.040;13.782;2023-09-12T13:43:24;99844.63;;;30.96;36.96
33506;BME280;19843;51.040;13.782;2023-09-12T13:45:52;99844.50;;;30.76;35.89
33506;BME280;19843;51.040;13.782;2023-09-12T13:48:21;99849.69;;;30.87;36.72
33506;BME280;19843;51.040;13.782;2023-09-12T13:50:49;99848.00;;;30.08;36.41
33506;BME280;19843;51.040;13.782;2023-09-12T13:53:17;99854.44;;;30.51;36.86
33506;BME280;19843;51.040;13.782;2023-09-12T13:55:46;99848.19;;;30.52;36.56
33506;BME280;19843;51.040;13.782;2023-09-12T13:58:22;99848.00;;;30.08;38.69
33506;BME280;19843;51.040;13.782;2023-09-12T14:00:53;99844.56;;;30.43;38.00
33506;BME280;19843;51.040;13.782;2023-09-12T14:03:22;99847.47;;;30.43;38.63